createdAt,value
2017-12-20T00:00:46.411Z,5.18
2017-12-20T00:01:57.875Z,5.13
2017-12-20T00:03:07.675Z,5.18
2017-12-20T00:04:17.786Z,5.03
2017-12-20T00:05:27.859Z,5.09
2017-12-20T00:06:37.668Z,5.16
2017-12-20T00:07:47.736Z,5.2
2017-12-20T00:08:57.532Z,5
2017-12-20T00:10:07.332Z,4.98
2017-12-20T00:11:17.413Z,5.02
2017-12-20T00:12:27.461Z,4.95
2017-12-20T00:13:36.982Z,5.05
2017-12-20T00:14:47.049Z,5
2017-12-20T00:15:57.105Z,4.98
2017-12-20T00:17:06.637Z,5.05
2017-12-20T00:18:18.099Z,5.09
2017-12-20T00:19:27.900Z,5.05
2017-12-20T00:20:37.970Z,5.03
2017-12-20T00:21:48.043Z,5.09
2017-12-20T00:22:57.569Z,5.03
2017-12-20T00:24:07.696Z,5.09
2017-12-20T00:25:17.745Z,5.08
2017-12-20T00:26:27.789Z,5.06
2017-12-20T00:27:37.584Z,5.13
2017-12-20T00:28:47.643Z,5.12
2017-12-20T00:29:57.691Z,5.05
2017-12-20T00:31:07.225Z,5.08
2017-12-20T00:32:17.019Z,5.1
2017-12-20T00:33:26.791Z,5.05
2017-12-20T00:34:36.865Z,5.05
2017-12-20T00:35:46.723Z,5.08
2017-12-20T00:36:56.774Z,5.03
2017-12-20T00:38:06.835Z,5.16
2017-12-20T00:39:16.615Z,5.13
2017-12-20T00:40:26.408Z,5.13
2017-12-20T00:41:36.455Z,5.1
2017-12-20T00:42:46.503Z,5.03
2017-12-20T00:43:56.036Z,5.12
2017-12-20T00:45:06.138Z,5.23
2017-12-20T00:46:15.929Z,5.18
2017-12-20T00:47:26.033Z,5.18
2017-12-20T00:48:35.913Z,5.23
2017-12-20T00:49:45.966Z,5.24
2017-12-20T00:50:56.013Z,5.27
2017-12-20T00:52:05.542Z,5.21
2017-12-20T00:53:15.329Z,5.26
2017-12-20T00:54:25.116Z,5.31
2017-12-20T00:55:35.167Z,5.28
2017-12-20T00:56:45.218Z,5.33
2017-12-20T00:57:55.286Z,5.31
2017-12-20T00:59:05.065Z,5.42
2017-12-20T01:00:15.115Z,5.36
2017-12-20T01:01:26.421Z,5.41
2017-12-20T01:02:36.495Z,5.37
2017-12-20T01:03:46.546Z,5.34
2017-12-20T01:04:56.602Z,5.34
2017-12-20T01:06:06.389Z,5.31
2017-12-20T01:07:16.182Z,5.3
2017-12-20T01:08:26.266Z,5.31
2017-12-20T01:09:36.304Z,5.37
2017-12-20T01:10:46.354Z,5.37
2017-12-20T01:11:55.893Z,5.31
2017-12-20T01:13:05.704Z,5.39
2017-12-20T01:14:15.757Z,5.37
2017-12-20T01:15:25.563Z,5.34
2017-12-20T01:16:35.359Z,5.37
2017-12-20T01:17:45.154Z,5.39
2017-12-20T01:18:54.673Z,5.41
2017-12-20T01:20:04.519Z,5.37
2017-12-20T01:21:14.355Z,5.33
2017-12-20T01:22:24.413Z,5.44
2017-12-20T01:23:34.209Z,5.34
2017-12-20T01:24:44.001Z,5.39
2017-12-20T01:25:53.945Z,5.34
2017-12-20T01:27:03.742Z,5.45
2017-12-20T01:28:13.541Z,5.36
2017-12-20T01:29:23.593Z,5.37
2017-12-20T01:30:33.636Z,5.36
2017-12-20T01:31:43.212Z,5.3
2017-12-20T01:32:53.030Z,5.39
2017-12-20T01:34:03.066Z,5.33
2017-12-20T01:35:13.124Z,5.44
2017-12-20T01:36:23.175Z,5.37
2017-12-20T01:37:33.291Z,5.39
2017-12-20T01:38:42.304Z,5.3
2017-12-20T01:39:53.344Z,5.37
2017-12-20T01:41:03.399Z,5.28
2017-12-20T01:42:13.183Z,5.27
2017-12-20T01:43:23.866Z,5.3
2017-12-20T01:44:33.928Z,5.21
2017-12-20T01:45:44.038Z,5.26
2017-12-20T01:46:54.097Z,5.2
2017-12-20T01:48:03.878Z,5.31
2017-12-20T01:49:13.934Z,5.27
2017-12-20T01:50:23.723Z,5.28
2017-12-20T01:51:33.778Z,5.34
2017-12-20T01:52:43.629Z,5.39
2017-12-20T01:53:53.150Z,5.37
2017-12-20T01:55:02.688Z,5.37
2017-12-20T01:56:12.475Z,5.34
2017-12-20T01:57:22.272Z,5.27
2017-12-20T01:58:32.070Z,5.36
2017-12-20T01:59:42.119Z,5.26
2017-12-20T02:00:52.236Z,5.27
2017-12-20T02:02:02.023Z,5.31
2017-12-20T02:03:11.549Z,5.37
2017-12-20T02:04:21.344Z,5.37
2017-12-20T02:05:31.389Z,5.37
2017-12-20T02:06:41.497Z,5.39
2017-12-20T02:07:51.542Z,5.37
2017-12-20T02:09:01.585Z,5.39
2017-12-20T02:10:11.642Z,5.41
2017-12-20T02:11:21.172Z,5.44
2017-12-20T02:12:30.749Z,5.42
2017-12-20T02:13:40.547Z,5.44
2017-12-20T02:14:50.077Z,5.45
2017-12-20T02:16:00.404Z,5.49
2017-12-20T02:17:10.487Z,5.49
2017-12-20T02:18:20.273Z,5.45
2017-12-20T02:19:30.335Z,5.36
2017-12-20T02:20:40.391Z,5.39
2017-12-20T02:21:50.177Z,5.46
2017-12-20T02:23:00.229Z,5.46
2017-12-20T02:24:10.267Z,5.37
2017-12-20T02:25:20.318Z,5.37
2017-12-20T02:26:30.104Z,5.36
2017-12-20T02:27:39.892Z,5.41
2017-12-20T02:28:49.927Z,5.34
2017-12-20T02:29:59.976Z,5.51
2017-12-20T02:31:10.028Z,5.52
2017-12-20T02:32:20.099Z,5.39
2017-12-20T02:33:30.170Z,5.39
2017-12-20T02:34:39.736Z,5.45
2017-12-20T02:35:49.529Z,5.45
2017-12-20T02:36:59.326Z,5.44
2017-12-20T02:38:09.376Z,5.44
2017-12-20T02:39:19.421Z,5.51
2017-12-20T02:40:29.461Z,5.48
2017-12-20T02:41:39.511Z,5.52
2017-12-20T02:42:49.054Z,5.55
2017-12-20T02:43:59.106Z,5.59
2017-12-20T02:45:09.159Z,5.51
2017-12-20T02:46:18.955Z,5.66
2017-12-20T02:47:28.537Z,5.62
2017-12-20T02:48:38.599Z,5.59
2017-12-20T02:49:48.662Z,5.63
2017-12-20T02:50:58.751Z,5.64
2017-12-20T02:52:08.545Z,5.67
2017-12-20T02:53:18.386Z,5.62
2017-12-20T02:54:28.439Z,5.67
2017-12-20T02:55:38.494Z,5.64
2017-12-20T02:56:48.290Z,5.67
2017-12-20T02:57:58.077Z,5.7
2017-12-20T02:59:07.668Z,5.7
2017-12-20T03:00:17.454Z,5.67
2017-12-20T03:01:27.498Z,5.75
2017-12-20T03:02:37.289Z,5.67
2017-12-20T03:33:58.967Z,2.77
2017-12-20T03:35:08.758Z,2.7
2017-12-20T03:36:18.545Z,2.73
2017-12-20T03:37:28.333Z,2.81
2017-12-20T03:38:38.119Z,2.77
2017-12-20T03:39:47.906Z,2.88
2017-12-20T03:40:57.962Z,3.03
2017-12-20T03:42:08.019Z,3.13
2017-12-20T03:43:17.800Z,3.29
2017-12-20T03:44:27.839Z,3.51
2017-12-20T03:45:37.417Z,3.67
2017-12-20T03:46:47.200Z,3.78
2017-12-20T03:47:57.260Z,3.94
2017-12-20T03:49:07.100Z,4.1
2017-12-20T03:50:16.890Z,4.28
2017-12-20T03:51:26.202Z,4.22
2017-12-20T03:52:35.979Z,4.38
2017-12-20T03:53:45.827Z,4.5
2017-12-20T03:54:55.896Z,4.64
2017-12-20T03:56:05.411Z,4.72
2017-12-20T03:57:15.792Z,4.79
2017-12-20T03:58:25.598Z,4.84
2017-12-20T03:59:35.661Z,4.95
2017-12-20T04:00:45.714Z,5.05
2017-12-20T04:01:55.762Z,5.13
2017-12-20T04:03:05.660Z,5.1
2017-12-20T04:04:15.461Z,5.15
2017-12-20T04:05:25.003Z,5.27
2017-12-20T04:06:35.057Z,5.3
2017-12-20T04:07:45.134Z,5.31
2017-12-20T04:08:55.248Z,5.36
2017-12-20T04:10:04.781Z,5.33
2017-12-20T04:11:14.833Z,5.52
2017-12-20T04:12:24.895Z,5.45
2017-12-20T04:13:34.940Z,5.48
2017-12-20T04:14:44.993Z,5.46
2017-12-20T04:15:55.049Z,5.49
2017-12-20T04:17:04.842Z,5.48
2017-12-20T04:18:14.648Z,5.49
2017-12-20T04:19:24.714Z,5.46
2017-12-20T04:20:34.248Z,5.54
2017-12-20T04:21:44.305Z,5.51
2017-12-20T04:22:54.428Z,5.48
2017-12-20T04:24:04.506Z,5.51
2017-12-20T04:25:14.547Z,5.45
2017-12-20T04:26:24.602Z,5.42
2017-12-20T04:27:34.402Z,5.51
2017-12-20T04:28:44.182Z,5.46
2017-12-20T04:29:54.240Z,5.48
2017-12-20T04:31:04.303Z,5.45
2017-12-20T04:32:14.365Z,5.51
2017-12-20T04:33:24.421Z,5.54
2017-12-20T04:34:34.474Z,5.48
2017-12-20T04:35:44.536Z,5.49
2017-12-20T04:36:54.336Z,5.49
2017-12-20T04:38:04.134Z,5.44
2017-12-20T04:39:13.935Z,5.46
2017-12-20T04:40:23.722Z,5.45
2017-12-20T04:41:33.532Z,5.48
2017-12-20T04:42:43.322Z,5.45
2017-12-20T04:43:53.390Z,5.52
2017-12-20T04:45:03.188Z,5.46
2017-12-20T04:46:12.963Z,5.49
2017-12-20T04:47:23.014Z,5.49
2017-12-20T04:48:33.049Z,5.42
2017-12-20T04:49:42.895Z,5.54
2017-12-20T04:50:52.949Z,5.51
2017-12-20T04:52:02.994Z,5.57
2017-12-20T04:53:12.520Z,5.63
2017-12-20T04:54:22.318Z,5.64
2017-12-20T04:55:32.365Z,5.6
2017-12-20T04:56:42.173Z,5.62
2017-12-20T04:57:52.239Z,5.54
2017-12-20T04:59:02.284Z,5.62
2017-12-20T05:00:11.803Z,5.6
2017-12-20T05:01:21.333Z,5.63
2017-12-20T05:02:31.165Z,5.7
2017-12-20T05:03:40.954Z,5.7
2017-12-20T05:04:51.015Z,5.81
2017-12-20T05:06:00.535Z,5.67
2017-12-20T05:07:10.313Z,5.64
2017-12-20T05:08:20.109Z,5.66
2017-12-20T05:09:29.635Z,5.66
2017-12-20T05:10:39.432Z,5.69
2017-12-20T05:11:49.483Z,5.69
2017-12-20T05:12:59.540Z,5.75
2017-12-20T05:14:09.130Z,5.62
2017-12-20T05:15:19.188Z,5.72
2017-12-20T05:16:28.711Z,5.66
2017-12-20T05:17:38.517Z,5.67
2017-12-20T05:18:48.569Z,5.64
2017-12-20T05:19:58.341Z,5.67
2017-12-20T05:21:07.862Z,5.54
2017-12-20T05:22:17.394Z,5.54
2017-12-20T05:23:27.459Z,5.57
2017-12-20T05:24:37.308Z,5.59
2017-12-20T05:25:47.391Z,5.54
2017-12-20T05:26:57.452Z,5.52
2017-12-20T05:28:07.508Z,5.51
2017-12-20T05:29:17.361Z,5.48
2017-12-20T05:30:27.474Z,5.55
2017-12-20T05:31:37.249Z,5.63
2017-12-20T05:32:47.294Z,5.51
2017-12-20T05:33:57.073Z,5.57
2017-12-20T05:35:06.861Z,5.57
2017-12-20T05:36:16.924Z,5.64
2017-12-20T05:37:26.987Z,5.69
2017-12-20T05:38:37.034Z,5.64
2017-12-20T05:39:47.098Z,5.54
2017-12-20T05:40:57.153Z,5.57
2017-12-20T05:42:07.251Z,5.73
2017-12-20T05:43:17.045Z,5.57
2017-12-20T05:44:26.867Z,5.66
2017-12-20T05:45:36.914Z,5.62
2017-12-20T05:46:46.975Z,5.54
2017-12-20T05:47:56.822Z,5.55
2017-12-20T05:49:06.338Z,5.6
2017-12-20T05:50:16.384Z,5.66
2017-12-20T05:51:26.169Z,5.7
2017-12-20T05:52:35.980Z,5.66
2017-12-20T05:53:45.764Z,5.63
2017-12-20T05:54:55.558Z,5.64
2017-12-20T05:56:05.622Z,5.75
2017-12-20T05:57:15.413Z,5.67
2017-12-20T05:58:25.459Z,5.73
2017-12-20T05:59:35.255Z,5.72
2017-12-20T06:00:45.032Z,5.7
2017-12-20T06:01:55.869Z,5.69
2017-12-20T06:03:05.932Z,5.7
2017-12-20T06:04:15.849Z,5.73
2017-12-20T06:05:25.620Z,5.7
2017-12-20T06:06:35.147Z,5.67
2017-12-20T06:07:45.196Z,5.7
2017-12-20T06:08:54.706Z,5.66
2017-12-20T06:10:04.494Z,5.7
2017-12-20T06:11:14.287Z,5.7
2017-12-20T06:12:24.359Z,5.67
2017-12-20T06:13:34.144Z,5.63
2017-12-20T06:14:44.208Z,5.63
2017-12-20T06:15:54.255Z,5.73
2017-12-20T06:17:04.311Z,5.66
2017-12-20T06:18:14.092Z,5.77
2017-12-20T06:19:23.871Z,5.7
2017-12-20T06:20:33.926Z,5.7
2017-12-20T06:21:44.037Z,5.8
2017-12-20T06:22:54.085Z,5.89
2017-12-20T06:24:04.146Z,5.77
2017-12-20T06:25:13.935Z,5.78
2017-12-20T06:26:24.035Z,5.99
2017-12-20T06:27:34.084Z,5.87
2017-12-20T06:28:44.146Z,5.84
2017-12-20T06:29:54.202Z,5.92
2017-12-20T06:31:04.257Z,5.96
2017-12-20T06:32:14.311Z,5.98
2017-12-20T06:33:24.378Z,6.05
2017-12-20T06:34:34.432Z,5.89
2017-12-20T06:35:44.494Z,5.96
2017-12-20T06:36:54.539Z,5.92
2017-12-20T06:38:04.586Z,5.87
2017-12-20T06:39:14.700Z,5.96
2017-12-20T06:40:24.756Z,6.02
2017-12-20T06:41:34.549Z,6.09
2017-12-20T06:42:44.591Z,6.06
2017-12-20T06:43:54.388Z,6.02
2017-12-20T06:45:04.228Z,6.03
2017-12-20T06:46:14.276Z,5.99
2017-12-20T06:47:24.069Z,5.91
2017-12-20T06:48:33.068Z,5.98
2017-12-20T06:49:42.860Z,6.03
2017-12-20T06:50:52.918Z,6.02
2017-12-20T06:52:02.982Z,6.05
2017-12-20T06:53:13.035Z,5.95
2017-12-20T06:54:22.838Z,6.15
2017-12-20T06:55:32.880Z,6.1
2017-12-20T06:56:42.988Z,6.02
2017-12-20T06:57:53.030Z,6.21
2017-12-20T06:59:02.839Z,6.1
2017-12-20T07:00:13.192Z,6.09
2017-12-20T07:01:24.278Z,6.09
2017-12-20T07:02:34.063Z,6.17
2017-12-20T07:03:44.132Z,6.14
2017-12-20T07:04:54.189Z,6.14
2017-12-20T07:06:04.244Z,6.25
2017-12-20T07:07:14.294Z,6.28
2017-12-20T07:08:24.409Z,6.26
2017-12-20T07:09:34.459Z,6.21
2017-12-20T07:10:44.502Z,6.31
2017-12-20T07:11:54.305Z,6.21
2017-12-20T07:13:04.366Z,6.24
2017-12-20T07:14:14.480Z,6.1
2017-12-20T07:15:24.301Z,6.13
2017-12-20T07:16:34.422Z,6.17
2017-12-20T07:17:44.486Z,6.1
2017-12-20T07:18:54.530Z,6.1
2017-12-20T07:20:04.389Z,6.14
2017-12-20T07:21:14.458Z,6.09
2017-12-20T07:22:24.501Z,6.06
2017-12-20T07:23:34.294Z,6.15
2017-12-20T07:24:44.069Z,6.06
2017-12-20T07:25:53.595Z,6.03
2017-12-20T07:27:03.633Z,6
2017-12-20T07:28:13.444Z,6.06
2017-12-20T07:29:23.482Z,5.99
2017-12-20T07:30:33.589Z,5.99
2017-12-20T07:31:43.629Z,6.03
2017-12-20T07:32:53.422Z,6.05
2017-12-20T07:34:03.483Z,6.02
2017-12-20T07:35:13.512Z,5.98
2017-12-20T07:36:23.305Z,6.06
2017-12-20T07:37:33.368Z,6.15
2017-12-20T07:38:43.417Z,6.09
2017-12-20T07:39:53.211Z,6.17
2017-12-20T07:41:02.744Z,6.09
2017-12-20T07:42:12.550Z,6.09
2017-12-20T07:43:22.647Z,6.15
2017-12-20T07:44:32.706Z,6.07
2017-12-20T07:45:42.755Z,6.18
2017-12-20T07:46:52.812Z,6.18
2017-12-20T07:48:02.090Z,6.06
2017-12-20T07:49:11.886Z,6.15
2017-12-20T07:50:21.418Z,6.17
2017-12-20T07:51:31.251Z,6.09
2017-12-20T07:52:41.306Z,6.15
2017-12-20T07:53:51.088Z,6.24
2017-12-20T07:55:01.186Z,6.15
2017-12-20T07:56:10.980Z,6.18
2017-12-20T07:57:20.767Z,6.2
2017-12-20T07:58:30.809Z,6.15
2017-12-20T07:59:40.866Z,6.14
2017-12-20T08:00:50.724Z,6.15
2017-12-20T08:02:00.256Z,6.15
2017-12-20T08:03:10.351Z,6.13
2017-12-20T08:04:20.404Z,6.18
2017-12-20T08:05:30.187Z,6.15
2017-12-20T08:06:40.239Z,6.1
2017-12-20T08:07:49.764Z,6.15
2017-12-20T08:08:59.554Z,6.24
2017-12-20T08:10:09.614Z,6.21
2017-12-20T08:11:19.405Z,6.24
2017-12-20T08:12:28.960Z,6.26
2017-12-20T08:13:38.733Z,6.21
2017-12-20T08:14:48.785Z,6.33
2017-12-20T08:15:58.898Z,6.28
2017-12-20T08:17:08.424Z,6.34
2017-12-20T08:18:18.255Z,6.29
2017-12-20T08:19:28.066Z,6.33
2017-12-20T08:20:38.113Z,6.34
2017-12-20T08:21:47.635Z,6.39
2017-12-20T08:22:57.436Z,6.33
2017-12-20T08:24:07.537Z,6.46
2017-12-20T08:25:17.317Z,6.46
2017-12-20T08:26:27.136Z,6.44
2017-12-20T08:27:37.173Z,6.49
2017-12-20T08:28:47.041Z,6.44
2017-12-20T08:29:57.102Z,6.51
2017-12-20T08:31:07.144Z,6.43
2017-12-20T08:32:16.958Z,6.49
2017-12-20T08:33:27.003Z,6.49
2017-12-20T08:34:37.062Z,6.43
2017-12-20T08:35:47.127Z,6.44
2017-12-20T08:36:57.195Z,6.44
2017-12-20T08:38:06.727Z,6.47
2017-12-20T08:39:17.568Z,6.44
2017-12-20T08:40:27.627Z,6.49
2017-12-20T08:41:37.166Z,6.47
2017-12-20T08:42:47.281Z,6.51
2017-12-20T08:43:57.328Z,6.55
2017-12-20T08:45:07.137Z,6.52
2017-12-20T08:46:16.930Z,6.72
2017-12-20T08:47:27.005Z,6.73
2017-12-20T08:48:37.112Z,6.65
2017-12-20T08:49:47.167Z,6.65
2017-12-20T08:50:57.230Z,6.85
2017-12-20T08:52:07.050Z,6.78
2017-12-20T08:53:16.847Z,6.79
2017-12-20T08:54:26.683Z,6.85
2017-12-20T08:55:36.726Z,6.79
2017-12-20T08:56:46.244Z,6.88
2017-12-20T08:57:58.092Z,6.78
2017-12-20T08:59:07.623Z,6.85
2017-12-20T09:00:17.514Z,6.93
2017-12-20T09:01:27.061Z,6.94
2017-12-20T09:02:37.422Z,6.88
2017-12-20T09:03:47.027Z,6.98
2017-12-20T09:04:58.691Z,6.98
2017-12-20T09:06:12.736Z,7.03
2017-12-20T09:07:25.483Z,7.12
2017-12-20T09:08:35.525Z,7.15
2017-12-20T09:09:45.587Z,7.21
2017-12-20T09:10:55.116Z,7.23
2017-12-20T09:12:04.914Z,7.26
2017-12-20T09:13:15.001Z,7.27
2017-12-20T09:14:24.799Z,7.16
2017-12-20T09:15:34.606Z,7.19
2017-12-20T09:16:43.891Z,7.19
2017-12-20T09:17:53.734Z,7.19
2017-12-20T09:19:03.818Z,7.27
2017-12-20T09:20:13.868Z,7.23
2017-12-20T09:21:23.680Z,7.34
2017-12-20T09:22:33.226Z,7.39
2017-12-20T09:23:43.020Z,7.34
2017-12-20T09:24:52.804Z,7.39
2017-12-20T09:26:02.859Z,7.36
2017-12-20T09:27:12.908Z,7.44
2017-12-20T09:28:22.960Z,7.51
2017-12-20T09:29:33.065Z,7.49
2017-12-20T09:30:42.839Z,7.4
2017-12-20T09:31:52.631Z,7.51
2017-12-20T09:33:02.153Z,7.36
2017-12-20T09:34:11.950Z,7.4
2017-12-20T09:35:22.018Z,7.37
2017-12-20T09:36:31.826Z,7.49
2017-12-20T09:37:41.875Z,7.44
2017-12-20T09:38:51.930Z,7.51
2017-12-20T09:40:02.010Z,7.55
2017-12-20T09:41:11.814Z,7.61
2017-12-20T09:42:22.069Z,7.51
2017-12-20T09:43:32.175Z,7.64
2017-12-20T09:44:42.225Z,7.75
2017-12-20T09:45:52.012Z,7.78
2017-12-20T09:47:02.098Z,7.82
2017-12-20T09:48:12.140Z,7.82
2017-12-20T09:49:22.211Z,7.86
2017-12-20T09:50:31.997Z,7.86
2017-12-20T09:51:42.053Z,7.88
2017-12-20T09:52:52.111Z,7.86
2017-12-20T09:54:01.923Z,7.88
2017-12-20T09:55:11.457Z,7.92
2017-12-20T09:56:21.793Z,7.92
2017-12-20T09:57:32.778Z,7.88
2017-12-20T09:58:42.855Z,7.99
2017-12-20T09:59:52.662Z,7.86
2017-12-20T10:01:02.756Z,7.92
2017-12-20T10:02:12.584Z,7.93
2017-12-20T10:03:22.378Z,7.91
2017-12-20T10:04:32.447Z,7.88
2017-12-20T10:05:42.501Z,7.88
2017-12-20T10:06:52.574Z,7.98
2017-12-20T10:08:02.115Z,7.86
2017-12-20T10:09:12.190Z,7.95
2017-12-20T10:10:22.252Z,7.93
2017-12-20T10:11:32.040Z,7.93
2017-12-20T10:12:42.166Z,7.82
2017-12-20T10:13:51.966Z,7.95
2017-12-20T10:15:02.040Z,7.86
2017-12-20T10:16:11.854Z,7.77
2017-12-20T10:17:21.919Z,7.74
2017-12-20T10:18:31.735Z,7.75
2017-12-20T10:19:41.536Z,7.75
2017-12-20T10:20:51.068Z,7.78
2017-12-20T10:22:00.871Z,7.78
2017-12-20T10:23:10.925Z,7.83
2017-12-20T10:24:20.730Z,7.88
2017-12-20T10:25:30.527Z,7.86
2017-12-20T10:26:40.925Z,7.82
2017-12-20T10:27:51.101Z,7.88
2017-12-20T10:29:01.157Z,7.89
2017-12-20T10:30:11.459Z,7.95
2017-12-20T10:31:21.515Z,7.92
2017-12-20T10:32:31.065Z,7.8
2017-12-20T10:33:41.148Z,7.78
2017-12-20T10:34:51.229Z,7.91
2017-12-20T10:36:00.774Z,7.82
2017-12-20T10:37:10.852Z,7.78
2017-12-20T10:38:20.635Z,7.74
2017-12-20T10:39:30.452Z,7.75
2017-12-20T10:40:40.520Z,7.74
2017-12-20T10:41:50.360Z,7.73
2017-12-20T10:43:00.467Z,7.74
2017-12-20T10:44:10.555Z,7.75
2017-12-20T10:45:20.624Z,7.74
2017-12-20T10:46:30.424Z,7.78
2017-12-20T10:47:40.212Z,7.85
2017-12-20T10:48:50.031Z,7.82
2017-12-20T10:49:59.572Z,7.82
2017-12-20T10:51:09.374Z,7.86
2017-12-20T10:52:19.155Z,7.96
2017-12-20T10:53:29.277Z,7.91
2017-12-20T10:54:39.337Z,7.91
2017-12-20T10:55:49.107Z,7.96
2017-12-20T10:56:59.154Z,7.95
2017-12-20T10:58:09.001Z,8.04
2017-12-20T10:59:19.047Z,8.16
2017-12-20T11:00:29.102Z,8.1
2017-12-20T11:01:38.892Z,8.09
2017-12-20T11:02:48.971Z,8.1
2017-12-20T11:03:58.506Z,8.21
2017-12-20T11:05:08.585Z,8.19
2017-12-20T11:06:18.646Z,8.19
2017-12-20T11:07:28.453Z,8.13
2017-12-20T11:08:37.966Z,8.21
2017-12-20T11:09:48.043Z,8.14
2017-12-20T11:10:58.150Z,8.24
2017-12-20T11:12:07.992Z,8.28
2017-12-20T11:13:17.778Z,8.34
2017-12-20T11:14:27.835Z,8.36
2017-12-20T11:15:38.126Z,8.44
2017-12-20T11:16:47.920Z,8.62
2017-12-20T11:17:57.988Z,8.53
2017-12-20T11:19:07.767Z,8.69
2017-12-20T11:20:17.858Z,8.65
2017-12-20T11:21:27.369Z,8.72
2017-12-20T11:22:37.431Z,8.69
2017-12-20T11:23:47.493Z,8.72
2017-12-20T11:24:57.575Z,8.71
2017-12-20T11:26:07.387Z,8.67
2017-12-20T11:27:17.240Z,8.79
2017-12-20T11:28:27.304Z,8.83
2017-12-20T11:29:38.811Z,8.8
2017-12-20T11:30:48.873Z,8.87
2017-12-20T11:31:58.668Z,8.8
2017-12-20T11:33:09.390Z,8.76
2017-12-20T11:34:19.429Z,8.8
2017-12-20T11:35:29.223Z,8.77
2017-12-20T11:36:38.771Z,8.77
2017-12-20T11:37:48.850Z,8.69
2017-12-20T11:38:58.703Z,8.77
2017-12-20T11:40:08.761Z,8.68
2017-12-20T11:41:18.838Z,8.64
2017-12-20T11:42:28.635Z,8.6
2017-12-20T11:43:38.160Z,8.67
2017-12-20T11:44:48.225Z,8.69
2017-12-20T11:45:57.770Z,8.61
2017-12-20T11:47:07.573Z,8.62
2017-12-20T11:48:16.866Z,8.62
2017-12-20T11:49:26.671Z,8.72
2017-12-20T11:50:36.520Z,8.71
2017-12-20T11:51:46.598Z,8.74
2017-12-20T11:52:56.160Z,8.68
2017-12-20T11:54:06.231Z,8.74
2017-12-20T11:55:16.036Z,8.67
2017-12-20T11:56:26.108Z,8.6
2017-12-20T11:57:36.161Z,8.61
2017-12-20T11:58:45.706Z,8.6
2017-12-20T11:59:55.782Z,8.54
2017-12-20T12:01:05.591Z,8.6
2017-12-20T12:02:15.656Z,8.62
2017-12-20T12:03:25.726Z,8.57
2017-12-20T12:04:35.789Z,8.67
2017-12-20T12:05:45.856Z,8.6
2017-12-20T12:06:55.918Z,8.61
2017-12-20T12:08:06.022Z,8.61
2017-12-20T12:09:16.601Z,8.62
2017-12-20T12:10:26.411Z,8.64
2017-12-20T12:11:36.475Z,8.62
2017-12-20T12:12:46.551Z,8.6
2017-12-20T12:13:57.670Z,8.64
2017-12-20T12:15:07.483Z,8.58
2017-12-20T12:16:17.289Z,8.62
2017-12-20T12:17:27.354Z,8.62
2017-12-20T12:18:37.422Z,8.6
2017-12-20T12:19:47.299Z,8.68
2017-12-20T12:20:56.559Z,8.67
2017-12-20T12:22:06.360Z,8.58
2017-12-20T12:23:16.476Z,8.57
2017-12-20T12:24:26.267Z,8.54
2017-12-20T12:25:36.345Z,8.61
2017-12-20T12:26:45.626Z,8.46
2017-12-20T12:27:55.453Z,8.43
2017-12-20T12:29:05.246Z,8.49
2017-12-20T12:30:15.305Z,8.49
2017-12-20T12:31:25.407Z,8.5
2017-12-20T12:32:34.956Z,8.47
2017-12-20T12:33:44.495Z,8.46
2017-12-20T12:34:54.566Z,8.58
2017-12-20T12:36:04.379Z,8.53
2017-12-20T12:37:14.219Z,8.52
2017-12-20T12:38:24.287Z,8.58
2017-12-20T12:39:34.353Z,8.6
2017-12-20T12:40:44.199Z,8.58
2017-12-20T12:41:54.254Z,8.54
2017-12-20T12:43:04.398Z,8.54
2017-12-20T12:44:14.486Z,8.61
2017-12-20T12:45:24.022Z,8.69
2017-12-20T12:46:33.833Z,8.65
2017-12-20T12:47:43.914Z,8.58
2017-12-20T12:48:54.058Z,8.57
2017-12-20T12:50:03.853Z,8.49
2017-12-20T12:51:14.131Z,8.58
2017-12-20T12:52:23.940Z,8.62
2017-12-20T12:53:33.759Z,8.62
2017-12-20T12:54:43.883Z,8.6
2017-12-20T12:55:53.936Z,8.6
2017-12-20T12:57:03.742Z,8.6
2017-12-20T12:58:13.818Z,8.64
2017-12-20T12:59:23.877Z,8.47
2017-12-20T13:00:33.464Z,8.44
2017-12-20T13:01:43.255Z,8.47
2017-12-20T13:02:53.317Z,8.44
2017-12-20T13:04:03.113Z,8.43
2017-12-20T13:05:13.166Z,8.47
2017-12-20T13:06:23.202Z,8.47
2017-12-20T13:07:32.740Z,8.49
2017-12-20T13:08:42.269Z,8.42
2017-12-20T13:09:52.337Z,8.46
2017-12-20T13:11:02.151Z,8.43
2017-12-20T13:12:11.697Z,8.34
2017-12-20T13:13:21.495Z,8.29
2017-12-20T13:14:31.314Z,8.32
2017-12-20T13:15:40.844Z,8.36
2017-12-20T13:16:50.912Z,8.35
2017-12-20T13:18:00.723Z,8.31
2017-12-20T13:19:10.527Z,8.25
2017-12-20T13:20:20.345Z,8.17
2017-12-20T13:21:30.406Z,8.09
2017-12-20T13:22:40.474Z,8.07
2017-12-20T13:23:50.337Z,8.07
2017-12-20T13:25:00.412Z,8.1
2017-12-20T13:26:10.218Z,7.98
2017-12-20T13:27:20.280Z,8.07
2017-12-20T13:28:30.350Z,7.95
2017-12-20T13:29:41.075Z,8.04
2017-12-20T13:30:51.539Z,8.04
2017-12-20T13:32:01.734Z,7.95
2017-12-20T13:33:11.802Z,7.92
2017-12-20T13:34:21.873Z,7.92
2017-12-20T13:35:31.927Z,7.82
2017-12-20T13:36:41.737Z,7.86
2017-12-20T13:37:51.535Z,7.77
2017-12-20T13:39:01.594Z,7.75
2017-12-20T13:40:11.646Z,7.77
2017-12-20T13:41:21.828Z,7.71
2017-12-20T13:42:31.622Z,7.77
2017-12-20T13:43:41.685Z,7.74
2017-12-20T13:44:51.761Z,7.8
2017-12-20T13:46:01.836Z,7.78
2017-12-20T13:47:11.743Z,7.75
2017-12-20T13:48:21.825Z,7.7
2017-12-20T13:49:31.869Z,7.7
2017-12-20T13:50:41.404Z,7.7
2017-12-20T13:51:51.457Z,7.63
2017-12-20T13:53:01.565Z,7.63
2017-12-20T13:54:11.621Z,7.64
2017-12-20T13:55:21.434Z,7.71
2017-12-20T13:56:30.978Z,7.73
2017-12-20T13:57:41.037Z,7.64
2017-12-20T13:58:50.882Z,7.67
2017-12-20T14:00:00.154Z,7.73
2017-12-20T14:01:10.279Z,7.71
2017-12-20T14:02:20.081Z,7.73
2017-12-20T14:03:30.137Z,7.73
2017-12-20T14:04:39.761Z,7.68
2017-12-20T14:05:50.723Z,7.73
2017-12-20T14:07:00.547Z,7.7
2017-12-20T14:08:10.392Z,7.74
2017-12-20T14:09:20.458Z,7.63
2017-12-20T14:10:30.534Z,7.63
2017-12-20T14:11:40.597Z,7.63
2017-12-20T14:12:50.653Z,7.51
2017-12-20T14:14:00.184Z,7.56
2017-12-20T14:15:10.236Z,7.7
2017-12-20T14:16:20.333Z,7.52
2017-12-20T14:17:31.906Z,7.56
2017-12-20T14:18:41.977Z,7.54
2017-12-20T14:19:51.818Z,7.51
2017-12-20T14:21:01.606Z,7.47
2017-12-20T14:22:11.151Z,7.49
2017-12-20T14:23:20.690Z,7.49
2017-12-20T14:24:30.753Z,7.36
2017-12-20T14:25:40.552Z,7.33
2017-12-20T14:26:50.381Z,7.34
2017-12-20T14:27:59.935Z,7.39
2017-12-20T14:29:09.989Z,7.39
2017-12-20T14:30:19.545Z,7.31
2017-12-20T14:31:29.612Z,7.23
2017-12-20T14:32:39.402Z,7.27
2017-12-20T14:33:49.240Z,7.23
2017-12-20T14:34:59.317Z,7.3
2017-12-20T14:36:09.355Z,7.3
2017-12-20T14:37:19.401Z,7.19
2017-12-20T14:38:29.448Z,7.27
2017-12-20T14:39:39.518Z,7.21
2017-12-20T14:40:49.568Z,7.18
2017-12-20T14:41:59.629Z,7.22
2017-12-20T14:43:09.420Z,7.22
2017-12-20T14:44:19.235Z,7.29
2017-12-20T14:45:29.408Z,7.22
2017-12-20T14:46:39.212Z,7.31
2017-12-20T14:47:48.765Z,7.27
2017-12-20T14:48:58.834Z,7.26
2017-12-20T14:50:08.929Z,7.26
2017-12-20T14:51:19.066Z,7.23
2017-12-20T14:52:29.140Z,7.22
2017-12-20T14:53:39.197Z,7.21
2017-12-20T14:54:49.258Z,7.18
2017-12-20T14:55:59.070Z,7.22
2017-12-20T14:57:08.913Z,7.22
2017-12-20T14:58:18.708Z,7.22
2017-12-20T14:59:28.814Z,7.16
2017-12-20T15:00:38.628Z,7.18
2017-12-20T15:01:48.714Z,7.04
2017-12-20T15:02:58.838Z,7.11
2017-12-20T15:04:08.647Z,7.04
2017-12-20T15:05:18.717Z,7.03
2017-12-20T15:06:28.260Z,7.13
2017-12-20T15:07:38.331Z,7.13
2017-12-20T15:08:48.391Z,7.13
2017-12-20T15:09:58.456Z,7.12
2017-12-20T15:11:08.260Z,7.12
2017-12-20T15:12:18.058Z,7.15
2017-12-20T15:13:28.115Z,7.08
2017-12-20T15:14:37.951Z,7.09
2017-12-20T15:15:47.754Z,7.08
2017-12-20T15:16:57.309Z,7.13
2017-12-20T15:18:07.365Z,7.08
2017-12-20T15:19:16.937Z,7.05
2017-12-20T15:20:27.087Z,7.09
2017-12-20T15:21:36.876Z,7.03
2017-12-20T15:22:46.991Z,7.01
2017-12-20T15:23:57.092Z,6.94
2017-12-20T15:25:07.137Z,6.91
2017-12-20T15:26:17.214Z,7
2017-12-20T15:27:27.019Z,6.91
2017-12-20T15:28:36.866Z,6.97
2017-12-20T15:29:47.184Z,7
2017-12-20T15:30:57.155Z,6.94
2017-12-20T15:32:07.631Z,6.94
2017-12-20T15:33:17.426Z,7.01
2017-12-20T15:34:27.469Z,7.01
2017-12-20T15:35:37.632Z,7
2017-12-20T15:36:47.172Z,7
2017-12-20T15:37:57.211Z,6.9
2017-12-20T15:39:07.024Z,6.88
2017-12-20T15:40:16.825Z,6.93
2017-12-20T15:41:26.907Z,6.8
2017-12-20T15:42:36.988Z,6.9
2017-12-20T15:43:46.536Z,6.83
2017-12-20T15:44:57.852Z,6.82
2017-12-20T15:46:08.000Z,6.8
2017-12-20T15:47:18.070Z,6.91
2017-12-20T15:48:27.945Z,6.85
2017-12-20T15:49:38.004Z,6.78
2017-12-20T15:50:48.145Z,6.75
2017-12-20T15:51:58.232Z,6.75
2017-12-20T15:53:07.805Z,6.7
2017-12-20T15:54:17.084Z,6.79
2017-12-20T15:55:27.177Z,6.67
2017-12-20T15:56:37.045Z,6.76
2017-12-20T15:57:47.117Z,6.76
2017-12-20T15:58:57.198Z,6.72
2017-12-20T16:00:07.255Z,6.65
2017-12-20T16:01:17.071Z,6.64
2017-12-20T16:02:27.151Z,6.67
2017-12-20T16:03:36.934Z,6.67
2017-12-20T16:04:47.007Z,6.7